sensor_id;sensor_type;location;lat;lon;timestamp;pressure;altitude;pressure_sealevel;temperature;humidity
71194;BME280;58903;47.210;8.618;2023-05-19T00:02:06;94432.78;;;26.89;41.39
71194;BME280;58903;47.210;8.618;2023-05-19T00:04:35;94430.03;;;26.89;41.10
71194;BME280;58903;47.210;8.618;2023-05-19T00:07:09;94428.00;;;26.90;40.95
71194;BME280;58903;47.210;8.618;2023-05-19T00:09:38;94426.28;;;26.87;41.01
71194;BME280;58903;47.210;8.618;2023-05-19T00:12:14;94424.28;;;26.87;41.01
71194;BME280;58903;47.210;8.618;2023-05-19T00:15:09;94420.97;;;26.89;41.17
71194;BME280;58903;47.210;8.618;2023-05-19T00:25:03;94417.25;;;26.86;41.39
71194;BME280;58903;47.210;8.618;2023-05-19T00:27:32;94414.47;;;26.86;41.18
71194;BME280;58903;47.210;8.618;2023-05-19T00:30:08;94415.00;;;26.85;41.18
71194;BME280;58903;47.210;8.618;2023-05-19T00:32:34;94413.50;;;26.84;40.92
71194;BME280;58903;47.210;8.618;2023-05-19T00:35:00;94403.53;;;26.81;40.83
71194;BME280;58903;47.210;8.618;2023-05-19T00:37:40;94402.47;;;26.84;41.60
71194;BME280;58903;47.210;8.618;2023-05-19T00:40:15;94400.75;;;26.81;41.20
71194;BME280;58903;47.210;8.618;2023-05-19T00:42:59;94395.78;;;26.79;41.50
71194;BME280;58903;47.210;8.618;2023-05-19T00:45:25;94400.75;;;26.81;41.19
71194;BME280;58903;47.210;8.618;2023-05-19T00:47:57;94402.25;;;26.82;41.11
71194;BME280;58903;47.210;8.618;2023-05-19T00:50:23;94400.22;;;26.82;41.14
71194;BME280;58903;47.210;8.618;2023-05-19T00:52:50;94398.00;;;26.81;41.21
71194;BME280;58903;47.210;8.618;2023-05-19T00:55:16;94388.22;;;26.80;41.37
71194;BME280;58903;47.210;8.618;2023-05-19T00:57:43;94390.97;;;26.80;41.14
71194;BME280;58903;47.210;8.618;2023-05-19T01:00:23;94397.78;;;26.79;41.19
71194;BME280;58903;47.210;8.618;2023-05-19T01:03:06;94395.00;;;26.79;41.68
71194;BME280;58903;47.210;8.618;2023-05-19T01:05:56;94394.25;;;26.78;41.17
71194;BME280;58903;47.210;8.618;2023-05-19T01:08:57;94393.72;;;26.80;40.90
71194;BME280;58903;47.210;8.618;2023-05-19T01:11:34;94390.75;;;26.78;41.25
71194;BME280;58903;47.210;8.618;2023-05-19T01:14:00;94383.22;;;26.78;41.24
71194;BME280;58903;47.210;8.618;2023-05-19T01:16:39;94386.50;;;26.77;40.93
71194;BME280;58903;47.210;8.618;2023-05-19T01:31:41;94389.03;;;26.75;41.06
71194;BME280;58903;47.210;8.618;2023-05-19T01:34:12;94390.78;;;26.72;41.15
71194;BME280;58903;47.210;8.618;2023-05-19T01:36:54;94395.56;;;26.72;41.31
71194;BME280;58903;47.210;8.618;2023-05-19T01:39:54;94395.56;;;26.72;41.27
71194;BME280;58903;47.210;8.618;2023-05-19T01:42:34;94392.03;;;26.71;41.63
71194;BME280;58903;47.210;8.618;2023-05-19T01:45:07;94397.34;;;26.69;41.29
71194;BME280;58903;47.210;8.618;2023-05-19T01:47:56;94391.81;;;26.69;41.71
71194;BME280;58903;47.210;8.618;2023-05-19T01:53:44;94396.34;;;26.67;41.12
71194;BME280;58903;47.210;8.618;2023-05-19T01:56:37;94394.56;;;26.69;41.22
71194;BME280;58903;47.210;8.618;2023-05-19T02:02:33;94393.59;;;26.67;41.93
71194;BME280;58903;47.210;8.618;2023-05-19T02:08:19;94377.34;;;26.63;41.50
71194;BME280;58903;47.210;8.618;2023-05-19T02:14:32;94378.09;;;26.64;41.78
71194;BME280;58903;47.210;8.618;2023-05-19T02:17:21;94374.34;;;26.61;41.70
71194;BME280;58903;47.210;8.618;2023-05-19T02:20:03;94369.59;;;26.62;41.97
71194;BME280;58903;47.210;8.618;2023-05-19T02:22:35;94376.38;;;26.61;41.53
71194;BME280;58903;47.210;8.618;2023-05-19T02:25:17;94375.91;;;26.57;41.26
71194;BME280;58903;47.210;8.618;2023-05-19T02:27:54;94377.38;;;26.58;41.82
71194;BME280;58903;47.210;8.618;2023-05-19T02:30:34;94378.13;;;26.58;41.29
71194;BME280;58903;47.210;8.618;2023-05-19T02:33:03;94379.41;;;26.57;41.45
71194;BME280;58903;47.210;8.618;2023-05-19T02:35:33;94371.41;;;26.54;41.93
71194;BME280;58903;47.210;8.618;2023-05-19T02:38:00;94377.16;;;26.56;42.15
71194;BME280;58903;47.210;8.618;2023-05-19T02:40:35;94366.13;;;26.56;41.62
71194;BME280;58903;47.210;8.618;2023-05-19T02:43:16;94368.66;;;26.54;41.42
71194;BME280;58903;47.210;8.618;2023-05-19T02:45:56;94362.41;;;26.53;41.96
71194;BME280;58903;47.210;8.618;2023-05-19T02:48:39;94360.91;;;26.52;41.62
71194;BME280;58903;47.210;8.618;2023-05-19T02:51:06;94357.41;;;26.52;41.94
71194;BME280;58903;47.210;8.618;2023-05-19T02:53:43;94356.16;;;26.53;41.86
71194;BME280;58903;47.210;8.618;2023-05-19T02:56:09;94356.19;;;26.47;41.68
71194;BME280;58903;47.210;8.618;2023-05-19T02:58:35;94358.91;;;26.53;41.53
71194;BME280;58903;47.210;8.618;2023-05-19T03:01:01;94360.91;;;26.52;42.01
71194;BME280;58903;47.210;8.618;2023-05-19T03:03:27;94354.94;;;26.48;41.34
71194;BME280;58903;47.210;8.618;2023-05-19T03:05:57;94354.19;;;26.48;42.10
71194;BME280;58903;47.210;8.618;2023-05-19T03:08:23;94348.66;;;26.48;41.78
71194;BME280;58903;47.210;8.618;2023-05-19T03:11:01;94351.19;;;26.46;41.72
71194;BME280;58903;47.210;8.618;2023-05-19T03:13:33;94352.44;;;26.45;41.49
71194;BME280;58903;47.210;8.618;2023-05-19T03:16:07;94348.97;;;26.44;41.85
71194;BME280;58903;47.210;8.618;2023-05-19T03:18:33;94351.19;;;26.46;42.16
71194;BME280;58903;47.210;8.618;2023-05-19T03:21:06;94345.69;;;26.46;41.75
71194;BME280;58903;47.210;8.618;2023-05-19T03:23:54;94356.72;;;26.46;41.87
71194;BME280;58903;47.210;8.618;2023-05-19T03:26:21;94352.44;;;26.45;41.75
71194;BME280;58903;47.210;8.618;2023-05-19T03:28:47;94353.97;;;26.46;42.12
71194;BME280;58903;47.210;8.618;2023-05-19T03:31:25;94349.69;;;26.45;42.29
71194;BME280;58903;47.210;8.618;2023-05-19T03:34:00;94353.72;;;26.44;42.34
71194;BME280;58903;47.210;8.618;2023-05-19T03:36:27;94352.44;;;26.45;42.04
71194;BME280;58903;47.210;8.618;2023-05-19T03:38:58;94356.47;;;26.44;41.67
71194;BME280;58903;47.210;8.618;2023-05-19T03:41:28;94352.97;;;26.43;41.74
71194;BME280;58903;47.210;8.618;2023-05-19T03:44:12;94362.56;;;26.37;41.89
71194;BME280;58903;47.210;8.618;2023-05-19T03:46:39;94367.56;;;26.38;41.91
71194;BME280;58903;47.210;8.618;2023-05-19T03:49:25;94364.31;;;26.40;41.67
71194;BME280;58903;47.210;8.618;2023-05-19T03:51:53;94366.84;;;26.38;42.05
71194;BME280;58903;47.210;8.618;2023-05-19T03:54:25;94373.81;;;26.39;41.56
71194;BME280;58903;47.210;8.618;2023-05-19T03:57:02;94372.34;;;26.38;42.25
71194;BME280;58903;47.210;8.618;2023-05-19T03:59:49;94370.09;;;26.36;41.69
71194;BME280;58903;47.210;8.618;2023-05-19T04:05:44;94364.63;;;26.31;42.22
71194;BME280;58903;47.210;8.618;2023-05-19T04:08:13;94369.13;;;26.34;42.15
71194;BME280;58903;47.210;8.618;2023-05-19T04:10:40;94369.63;;;26.32;41.84
71194;BME280;58903;47.210;8.618;2023-05-19T04:13:08;94371.13;;;26.33;41.67
71194;BME280;58903;47.210;8.618;2023-05-19T04:15:34;94375.16;;;26.32;42.13
71194;BME280;58903;47.210;8.618;2023-05-19T04:18:02;94376.91;;;26.30;42.08
71194;BME280;58903;47.210;8.618;2023-05-19T04:20:30;94377.66;;;26.30;42.30
71194;BME280;58903;47.210;8.618;2023-05-19T04:23:09;94382.19;;;26.28;42.33
71194;BME280;58903;47.210;8.618;2023-05-19T04:25:44;94378.44;;;26.31;42.44
71194;BME280;58903;47.210;8.618;2023-05-19T04:28:15;94387.72;;;26.28;41.74
71194;BME280;58903;47.210;8.618;2023-05-19T04:30:44;94376.91;;;26.30;41.51
71194;BME280;58903;47.210;8.618;2023-05-19T04:33:16;94382.69;;;26.32;42.49
71194;BME280;58903;47.210;8.618;2023-05-19T04:35:42;94387.94;;;26.30;42.26
71194;BME280;58903;47.210;8.618;2023-05-19T04:38:10;94389.22;;;26.29;42.22
71194;BME280;58903;47.210;8.618;2023-05-19T04:40:37;94388.53;;;26.23;41.51
71194;BME280;58903;47.210;8.618;2023-05-19T04:43:07;94389.97;;;26.29;41.95
71194;BME280;58903;47.210;8.618;2023-05-19T04:45:34;94393.47;;;26.30;42.59
71194;BME280;58903;47.210;8.618;2023-05-19T04:48:02;94388.69;;;26.30;42.36
71194;BME280;58903;47.210;8.618;2023-05-19T04:50:31;94384.22;;;26.27;42.49
71194;BME280;58903;47.210;8.618;2023-05-19T04:53:13;94394.75;;;26.29;42.42
71194;BME280;58903;47.210;8.618;2023-05-19T04:55:41;94384.22;;;26.27;41.70
71194;BME280;58903;47.210;8.618;2023-05-19T04:58:07;94380.94;;;26.29;42.13
71194;BME280;58903;47.210;8.618;2023-05-19T05:00:32;94386.19;;;26.32;42.70
71194;BME280;58903;47.210;8.618;2023-05-19T05:03:08;94388.44;;;26.34;42.08
71194;BME280;58903;47.210;8.618;2023-05-19T05:05:34;94385.69;;;26.34;41.89
71194;BME280;58903;47.210;8.618;2023-05-19T05:08:04;94386.47;;;26.29;42.37
71194;BME280;58903;47.210;8.618;2023-05-19T05:10:31;94386.25;;;26.27;42.28
71194;BME280;58903;47.210;8.618;2023-05-19T05:12:57;94384.22;;;26.27;42.27
71194;BME280;58903;47.210;8.618;2023-05-19T05:15:24;94390.25;;;26.26;42.03
71194;BME280;58903;47.210;8.618;2023-05-19T05:17:54;94388.25;;;26.26;42.00
71194;BME280;58903;47.210;8.618;2023-05-19T05:20:21;94387.72;;;26.28;42.10
71194;BME280;58903;47.210;8.618;2023-05-19T05:22:50;94391.97;;;26.29;42.32
71194;BME280;58903;47.210;8.618;2023-05-19T05:25:17;94392.44;;;26.33;42.01
71194;BME280;58903;47.210;8.618;2023-05-19T05:27:43;94390.66;;;26.35;42.74
71194;BME280;58903;47.210;8.618;2023-05-19T05:30:10;94386.63;;;26.36;42.69
71194;BME280;58903;47.210;8.618;2023-05-19T05:32:36;94389.63;;;26.38;42.46
71194;BME280;58903;47.210;8.618;2023-05-19T05:35:05;94387.84;;;26.41;41.90
71194;BME280;58903;47.210;8.618;2023-05-19T05:37:34;94391.06;;;26.45;42.16
71194;BME280;58903;47.210;8.618;2023-05-19T05:40:02;94387.06;;;26.46;42.16
71194;BME280;58903;47.210;8.618;2023-05-19T05:42:29;94387.28;;;26.48;41.71
71194;BME280;58903;47.210;8.618;2023-05-19T05:44:57;94385.28;;;26.48;41.81
71194;BME280;58903;47.210;8.618;2023-05-19T05:47:23;94386.25;;;26.51;42.10
71194;BME280;58903;47.210;8.618;2023-05-19T05:49:51;94394.00;;;26.52;42.33
71194;BME280;58903;47.210;8.618;2023-05-19T05:52:20;94389.25;;;26.53;42.31
71194;BME280;58903;47.210;8.618;2023-05-19T05:54:49;94392.00;;;26.53;42.22
71194;BME280;58903;47.210;8.618;2023-05-19T05:57:18;94388.19;;;26.56;42.05
71194;BME280;58903;47.210;8.618;2023-05-19T05:59:53;94387.16;;;26.59;42.30
71194;BME280;58903;47.210;8.618;2023-05-19T06:02:21;94380.91;;;26.58;41.91
71194;BME280;58903;47.210;8.618;2023-05-19T06:04:47;94388.69;;;26.60;41.88
71194;BME280;58903;47.210;8.618;2023-05-19T06:07:15;94381.34;;;26.62;41.91
71194;BME280;58903;47.210;8.618;2023-05-19T06:09:43;94392.63;;;26.64;42.27
71194;BME280;58903;47.210;8.618;2023-05-19T06:12:12;94386.59;;;26.66;41.94
71194;BME280;58903;47.210;8.618;2023-05-19T06:15:09;94386.81;;;26.68;41.97
71194;BME280;58903;47.210;8.618;2023-05-19T06:17:40;94380.78;;;26.69;41.56
71194;BME280;58903;47.210;8.618;2023-05-19T06:20:18;94380.00;;;26.74;41.88
71194;BME280;58903;47.210;8.618;2023-05-19T06:23:10;94388.00;;;26.78;42.55
71194;BME280;58903;47.210;8.618;2023-05-19T06:25:44;94382.69;;;26.80;41.93
71194;BME280;58903;47.210;8.618;2023-05-19T06:28:33;94383.41;;;26.86;41.63
71194;BME280;58903;47.210;8.618;2023-05-19T06:31:12;94385.09;;;26.89;41.48
71194;BME280;58903;47.210;8.618;2023-05-19T06:33:45;94386.09;;;26.92;41.43
71194;BME280;58903;47.210;8.618;2023-05-19T06:36:13;94385.78;;;26.95;41.41
71194;BME280;58903;47.210;8.618;2023-05-19T06:38:47;94384.53;;;26.96;41.78
71194;BME280;58903;47.210;8.618;2023-05-19T06:41:15;94385.19;;;27.02;41.44
71194;BME280;58903;47.210;8.618;2023-05-19T06:43:57;94385.44;;;27.04;41.57
71194;BME280;58903;47.210;8.618;2023-05-19T06:46:33;94385.66;;;27.06;40.98
71194;BME280;58903;47.210;8.618;2023-05-19T06:49:18;94390.13;;;27.09;40.84
71194;BME280;58903;47.210;8.618;2023-05-19T06:51:53;94391.63;;;27.10;40.83
71194;BME280;58903;47.210;8.618;2023-05-19T06:54:22;94395.88;;;27.11;40.54
71194;BME280;58903;47.210;8.618;2023-05-19T06:57:11;94393.88;;;27.12;41.02
71194;BME280;58903;47.210;8.618;2023-05-19T06:59:51;94402.88;;;27.12;41.07
71194;BME280;58903;47.210;8.618;2023-05-19T07:02:24;94400.59;;;27.16;40.95
71194;BME280;58903;47.210;8.618;2023-05-19T07:05:02;94395.09;;;27.16;40.99
71194;BME280;58903;47.210;8.618;2023-05-19T07:07:30;94386.81;;;27.16;41.04
71194;BME280;58903;47.210;8.618;2023-05-19T07:09:59;94398.06;;;27.18;41.13
71194;BME280;58903;47.210;8.618;2023-05-19T07:12:35;94401.56;;;27.19;41.26
71194;BME280;58903;47.210;8.618;2023-05-19T07:15:28;94400.81;;;27.18;41.05
71194;BME280;58903;47.210;8.618;2023-05-19T07:18:06;94395.59;;;27.15;41.09
71194;BME280;58903;47.210;8.618;2023-05-19T07:20:43;94391.03;;;27.17;40.82
71194;BME280;58903;47.210;8.618;2023-05-19T07:23:09;94386.28;;;27.18;40.92
71194;BME280;58903;47.210;8.618;2023-05-19T07:25:36;94395.09;;;27.16;41.07
71194;BME280;58903;47.210;8.618;2023-05-19T07:28:12;94399.31;;;27.17;40.79
71194;BME280;58903;47.210;8.618;2023-05-19T07:30:47;94401.09;;;27.15;40.86
71194;BME280;58903;47.210;8.618;2023-05-19T07:33:39;94391.84;;;27.12;40.83
71194;BME280;58903;47.210;8.618;2023-05-19T07:36:05;94395.88;;;27.11;40.93
71194;BME280;58903;47.210;8.618;2023-05-19T07:38:36;94394.91;;;27.09;41.04
71194;BME280;58903;47.210;8.618;2023-05-19T07:41:08;94388.63;;;27.08;41.32
71194;BME280;58903;47.210;8.618;2023-05-19T07:43:34;94387.91;;;27.08;41.58
71194;BME280;58903;47.210;8.618;2023-05-19T07:46:17;94380.66;;;27.05;41.63
71194;BME280;58903;47.210;8.618;2023-05-19T07:48:45;94388.94;;;27.05;41.31
71194;BME280;58903;47.210;8.618;2023-05-19T07:51:21;94392.22;;;27.03;41.76
71194;BME280;58903;47.210;8.618;2023-05-19T07:54:04;94399.53;;;27.01;41.94
71194;BME280;58903;47.210;8.618;2023-05-19T07:56:35;94398.78;;;27.00;41.80
71194;BME280;58903;47.210;8.618;2023-05-19T07:59:03;94397.28;;;26.99;41.47
71194;BME280;58903;47.210;8.618;2023-05-19T08:01:32;94390.50;;;27.00;41.58
71194;BME280;58903;47.210;8.618;2023-05-19T08:04:08;94395.78;;;26.98;41.73
71194;BME280;58903;47.210;8.618;2023-05-19T08:06:44;94389.81;;;26.94;42.16
71194;BME280;58903;47.210;8.618;2023-05-19T08:09:10;94391.53;;;26.97;41.72
71194;BME280;58903;47.210;8.618;2023-05-19T08:12:07;94398.34;;;26.96;41.88
71194;BME280;58903;47.210;8.618;2023-05-19T08:14:51;94392.81;;;26.96;41.91
71194;BME280;58903;47.210;8.618;2023-05-19T08:17:17;94399.81;;;26.97;42.07
71194;BME280;58903;47.210;8.618;2023-05-19T08:19:50;94389.53;;;26.98;41.79
71194;BME280;58903;47.210;8.618;2023-05-19T08:22:22;94385.28;;;26.97;42.03
71194;BME280;58903;47.210;8.618;2023-05-19T08:24:48;94383.25;;;26.97;41.74
71194;BME280;58903;47.210;8.618;2023-05-19T08:27:21;94387.28;;;26.96;41.84
71194;BME280;58903;47.210;8.618;2023-05-19T08:29:53;94381.78;;;26.96;42.13
71194;BME280;58903;47.210;8.618;2023-05-19T08:32:23;94384.53;;;26.96;41.91
71194;BME280;58903;47.210;8.618;2023-05-19T08:34:49;94383.78;;;26.96;42.07
71194;BME280;58903;47.210;8.618;2023-05-19T08:37:20;94381.31;;;26.92;42.18
71194;BME280;58903;47.210;8.618;2023-05-19T08:39:48;94381.53;;;26.94;41.97
71194;BME280;58903;47.210;8.618;2023-05-19T08:42:22;94387.28;;;26.96;42.38
71194;BME280;58903;47.210;8.618;2023-05-19T08:44:53;94380.78;;;26.94;41.87
71194;BME280;58903;47.210;8.618;2023-05-19T08:47:32;94375.81;;;26.92;42.30
71194;BME280;58903;47.210;8.618;2023-05-19T08:50:31;94381.31;;;26.92;42.15
71194;BME280;58903;47.210;8.618;2023-05-19T08:53:26;94380.34;;;26.89;41.88
71194;BME280;58903;47.210;8.618;2023-05-19T08:56:20;94369.84;;;26.88;42.35
71194;BME280;58903;47.210;8.618;2023-05-19T08:58:51;94378.56;;;26.92;42.32
71194;BME280;58903;47.210;8.618;2023-05-19T09:01:18;94378.34;;;26.90;41.99
71194;BME280;58903;47.210;8.618;2023-05-19T09:04:02;94374.28;;;26.91;42.65
71194;BME280;58903;47.210;8.618;2023-05-19T09:06:42;94376.06;;;26.88;42.20
71194;BME280;58903;47.210;8.618;2023-05-19T09:09:27;94379.59;;;26.89;42.22
71194;BME280;58903;47.210;8.618;2023-05-19T09:11:53;94370.56;;;26.88;42.11
71194;BME280;58903;47.210;8.618;2023-05-19T09:14:21;94369.31;;;26.89;42.66
71194;BME280;58903;47.210;8.618;2023-05-19T09:16:47;94369.31;;;26.89;42.89
71194;BME280;58903;47.210;8.618;2023-05-19T09:19:17;94369.53;;;26.92;42.38
71194;BME280;58903;47.210;8.618;2023-05-19T09:21:44;94365.56;;;26.87;42.40
71194;BME280;58903;47.210;8.618;2023-05-19T09:24:10;94368.53;;;26.89;42.64
71194;BME280;58903;47.210;8.618;2023-05-19T09:26:46;94361.56;;;26.88;42.48
71194;BME280;58903;47.210;8.618;2023-05-19T09:29:43;94369.84;;;26.88;42.12
71194;BME280;58903;47.210;8.618;2023-05-19T09:32:28;94368.03;;;26.90;42.27
71194;BME280;58903;47.210;8.618;2023-05-19T09:35:21;94365.03;;;26.88;42.70
71194;BME280;58903;47.210;8.618;2023-05-19T09:38:03;94363.56;;;26.87;42.05
71194;BME280;58903;47.210;8.618;2023-05-19T09:40:33;94362.56;;;26.85;42.62
71194;BME280;58903;47.210;8.618;2023-05-19T09:43:04;94368.31;;;26.87;42.56
71194;BME280;58903;47.210;8.618;2023-05-19T09:45:31;94362.06;;;26.86;42.64
71194;BME280;58903;47.210;8.618;2023-05-19T09:48:08;94368.09;;;26.85;42.98
71194;BME280;58903;47.210;8.618;2023-05-19T09:51:06;94367.34;;;26.84;42.17
71194;BME280;58903;47.210;8.618;2023-05-19T09:53:45;94366.59;;;26.84;42.78
71194;BME280;58903;47.210;8.618;2023-05-19T09:56:13;94369.34;;;26.84;42.68
71194;BME280;58903;47.210;8.618;2023-05-19T09:58:41;94367.13;;;26.82;42.16
71194;BME280;58903;47.210;8.618;2023-05-19T10:01:09;94368.63;;;26.83;42.36
71194;BME280;58903;47.210;8.618;2023-05-19T10:03:38;94372.63;;;26.82;42.44
71194;BME280;58903;47.210;8.618;2023-05-19T10:06:15;94369.66;;;26.80;42.80
71194;BME280;58903;47.210;8.618;2023-05-19T10:08:45;94375.94;;;26.81;43.08
71194;BME280;58903;47.210;8.618;2023-05-19T10:11:22;94370.19;;;26.79;42.72
71194;BME280;58903;47.210;8.618;2023-05-19T10:14:08;94371.88;;;26.82;42.63
71194;BME280;58903;47.210;8.618;2023-05-19T10:16:39;94371.88;;;26.82;42.24
71194;BME280;58903;47.210;8.618;2023-05-19T10:19:06;94366.66;;;26.78;43.01
71194;BME280;58903;47.210;8.618;2023-05-19T10:21:33;94361.91;;;26.79;42.71
71194;BME280;58903;47.210;8.618;2023-05-19T10:24:01;94362.13;;;26.81;42.78
71194;BME280;58903;47.210;8.618;2023-05-19T10:26:29;94353.63;;;26.79;43.03
71194;BME280;58903;47.210;8.618;2023-05-19T10:28:59;94360.41;;;26.78;43.26
71194;BME280;58903;47.210;8.618;2023-05-19T10:31:29;94363.91;;;26.78;43.48
71194;BME280;58903;47.210;8.618;2023-05-19T10:34:13;94360.16;;;26.76;43.34
71194;BME280;58903;47.210;8.618;2023-05-19T10:39:41;94358.91;;;26.77;43.28
71194;BME280;58903;47.210;8.618;2023-05-19T10:45:17;94365.16;;;26.77;43.51
71194;BME280;58903;47.210;8.618;2023-05-19T10:47:50;94361.69;;;26.77;43.67
71194;BME280;58903;47.210;8.618;2023-05-19T10:50:25;94360.69;;;26.74;43.54
71194;BME280;58903;47.210;8.618;2023-05-19T10:52:58;94359.63;;;26.77;43.41
71194;BME280;58903;47.210;8.618;2023-05-19T10:56:00;94358.16;;;26.76;43.60
71194;BME280;58903;47.210;8.618;2023-05-19T11:01:30;94368.22;;;26.74;43.14
71194;BME280;58903;47.210;8.618;2023-05-19T11:04:09;94362.94;;;26.76;42.86
71194;BME280;58903;47.210;8.618;2023-05-19T11:06:42;94366.97;;;26.75;42.87
71194;BME280;58903;47.210;8.618;2023-05-19T11:09:21;94363.69;;;26.76;42.63
71194;BME280;58903;47.210;8.618;2023-05-19T11:11:49;94362.19;;;26.75;42.51
71194;BME280;58903;47.210;8.618;2023-05-19T11:14:21;94366.97;;;26.75;43.34
71194;BME280;58903;47.210;8.618;2023-05-19T11:17:13;94359.41;;;26.75;43.03
71194;BME280;58903;47.210;8.618;2023-05-19T11:23:04;94357.94;;;26.74;42.83
71194;BME280;58903;47.210;8.618;2023-05-19T11:25:40;94359.94;;;26.74;42.74
71194;BME280;58903;47.210;8.618;2023-05-19T11:28:19;94350.91;;;26.73;42.71
71194;BME280;58903;47.210;8.618;2023-05-19T11:30:53;94356.66;;;26.75;42.88
71194;BME280;58903;47.210;8.618;2023-05-19T11:33:55;94356.66;;;26.75;42.52
71194;BME280;58903;47.210;8.618;2023-05-19T11:36:21;94352.94;;;26.73;42.56
71194;BME280;58903;47.210;8.618;2023-05-19T11:39:00;94348.16;;;26.73;42.84
71194;BME280;58903;47.210;8.618;2023-05-19T11:41:52;94354.16;;;26.72;42.84
71194;BME280;58903;47.210;8.618;2023-05-19T11:44:27;94347.69;;;26.69;42.83
71194;BME280;58903;47.210;8.618;2023-05-19T11:46:58;94352.44;;;26.69;42.95
71194;BME280;58903;47.210;8.618;2023-05-19T11:49:37;94338.88;;;26.71;42.74
71194;BME280;58903;47.210;8.618;2023-05-19T11:52:05;94347.69;;;26.69;42.54
71194;BME280;58903;47.210;8.618;2023-05-19T11:54:33;94335.88;;;26.69;42.96
71194;BME280;58903;47.210;8.618;2023-05-19T11:57:09;94344.38;;;26.71;42.57
71194;BME280;58903;47.210;8.618;2023-05-19T11:59:40;94344.16;;;26.69;42.80
71194;BME280;58903;47.210;8.618;2023-05-19T12:02:19;94349.91;;;26.71;42.66
71194;BME280;58903;47.210;8.618;2023-05-19T12:04:47;94352.66;;;26.71;42.55
71194;BME280;58903;47.210;8.618;2023-05-19T12:07:27;94349.19;;;26.70;42.90
71194;BME280;58903;47.210;8.618;2023-05-19T12:10:09;94353.94;;;26.70;42.36
71194;BME280;58903;47.210;8.618;2023-05-19T12:12:41;94348.44;;;26.70;42.68
71194;BME280;58903;47.210;8.618;2023-05-19T12:15:11;94348.44;;;26.70;42.30
71194;BME280;58903;47.210;8.618;2023-05-19T12:18:02;94349.19;;;26.70;42.31
71194;BME280;58903;47.210;8.618;2023-05-19T12:20:36;94346.19;;;26.68;41.93
71194;BME280;58903;47.210;8.618;2023-05-19T12:23:39;94342.69;;;26.68;41.97
71194;BME280;58903;47.210;8.618;2023-05-19T12:26:19;94342.69;;;26.68;42.30
71194;BME280;58903;47.210;8.618;2023-05-19T12:29:06;94341.94;;;26.67;42.18
71194;BME280;58903;47.210;8.618;2023-05-19T12:31:36;94344.16;;;26.69;42.33
71194;BME280;58903;47.210;8.618;2023-05-19T12:34:03;94341.41;;;26.69;42.70
71194;BME280;58903;47.210;8.618;2023-05-19T12:36:31;94346.91;;;26.69;42.84
71194;BME280;58903;47.210;8.618;2023-05-19T12:39:13;94349.69;;;26.69;42.46
71194;BME280;58903;47.210;8.618;2023-05-19T12:42:10;94346.19;;;26.68;42.49
71194;BME280;58903;47.210;8.618;2023-05-19T12:44:50;94333.13;;;26.69;42.22
71194;BME280;58903;47.210;8.618;2023-05-19T12:47:53;94338.41;;;26.67;42.65
71194;BME280;58903;47.210;8.618;2023-05-19T12:50:29;94342.47;;;26.66;42.74
71194;BME280;58903;47.210;8.618;2023-05-19T12:53:14;94335.88;;;26.69;42.48
71194;BME280;58903;47.210;8.618;2023-05-19T12:56:08;94342.91;;;26.70;42.50
71194;BME280;58903;47.210;8.618;2023-05-19T12:59:04;94335.88;;;26.69;42.47
71194;BME280;58903;47.210;8.618;2023-05-19T13:01:54;94342.69;;;26.68;42.40
71194;BME280;58903;47.210;8.618;2023-05-19T13:04:33;94328.88;;;26.68;42.75
71194;BME280;58903;47.210;8.618;2023-05-19T13:07:37;94331.44;;;26.66;42.24
71194;BME280;58903;47.210;8.618;2023-05-19T13:10:13;94332.69;;;26.65;42.51
71194;BME280;58903;47.210;8.618;2023-05-19T13:13:01;94331.44;;;26.66;42.53
71194;BME280;58903;47.210;8.618;2023-05-19T13:16:00;94333.97;;;26.64;42.63
71194;BME280;58903;47.210;8.618;2023-05-19T13:18:36;94329.91;;;26.65;42.72
71194;BME280;58903;47.210;8.618;2023-05-19T13:21:13;94332.44;;;26.63;42.55
71194;BME280;58903;47.210;8.618;2023-05-19T13:27:17;94331.91;;;26.64;42.63
71194;BME280;58903;47.210;8.618;2023-05-19T13:29:43;94328.72;;;26.60;43.13
71194;BME280;58903;47.210;8.618;2023-05-19T13:32:26;94331.19;;;26.64;42.82
71194;BME280;58903;47.210;8.618;2023-05-19T13:35:06;94325.16;;;26.65;42.66
71194;BME280;58903;47.210;8.618;2023-05-19T13:37:32;94328.44;;;26.64;42.55
71194;BME280;58903;47.210;8.618;2023-05-19T13:40:02;94333.97;;;26.64;42.43
71194;BME280;58903;47.210;8.618;2023-05-19T13:42:33;94333.97;;;26.64;42.39
71194;BME280;58903;47.210;8.618;2023-05-19T13:45:14;94324.94;;;26.63;42.72
71194;BME280;58903;47.210;8.618;2023-05-19T13:48:08;94324.94;;;26.63;43.10
71194;BME280;58903;47.210;8.618;2023-05-19T13:51:15;94323.16;;;26.66;42.14
71194;BME280;58903;47.210;8.618;2023-05-19T13:53:51;94328.66;;;26.66;43.28
71194;BME280;58903;47.210;8.618;2023-05-19T13:56:33;94329.47;;;26.61;42.90
71194;BME280;58903;47.210;8.618;2023-05-19T13:59:18;94326.19;;;26.62;42.67
71194;BME280;58903;47.210;8.618;2023-05-19T14:01:48;94328.44;;;26.64;42.40
71194;BME280;58903;47.210;8.618;2023-05-19T14:04:35;94323.94;;;26.61;42.50
71194;BME280;58903;47.210;8.618;2023-05-19T14:07:18;94326.94;;;26.63;42.12
71194;BME280;58903;47.210;8.618;2023-05-19T14:09:54;94321.19;;;26.61;42.12
71194;BME280;58903;47.210;8.618;2023-05-19T14:12:20;94319.94;;;26.62;42.26
71194;BME280;58903;47.210;8.618;2023-05-19T14:15:05;94317.91;;;26.62;42.49
71194;BME280;58903;47.210;8.618;2023-05-19T14:17:42;94321.41;;;26.63;42.81
71194;BME280;58903;47.210;8.618;2023-05-19T14:20:16;94311.66;;;26.62;42.24
71194;BME280;58903;47.210;8.618;2023-05-19T14:23:02;94307.63;;;26.63;42.82
71194;BME280;58903;47.210;8.618;2023-05-19T14:25:36;94312.63;;;26.64;42.18
71194;BME280;58903;47.210;8.618;2023-05-19T14:28:05;94319.63;;;26.65;42.56
71194;BME280;58903;47.210;8.618;2023-05-19T14:30:32;94317.91;;;26.62;42.70
71194;BME280;58903;47.210;8.618;2023-05-19T14:33:02;94308.91;;;26.62;43.74
71194;BME280;58903;47.210;8.618;2023-05-19T14:35:56;94318.88;;;26.65;43.51